Time;durP1;ratioP1;P1;durP2;ratioP2;P2;SDS_P1;SDS_P2;PMS_P1;PMS_P2;Temp;Humidity;BMP_temperature;BMP_pressure;BME280_temperature;BME280_humidity;BME280_pressure;Samples;Min_cycle;Max_cycle;Signal;HPM_P1;HPM_P2
2024/01/29 00:01:31;;;;;;;20.63;10.97;;;;;;;17.69;51.16;101619.91;5065775;28;20649;-65
2024/01/29 00:03:57;;;;;;;13.60;10.00;;;;;;;17.69;51.11;101625.59;5039279;28;20179;-65
2024/01/29 00:06:22;;;;;;;19.73;11.27;;;;;;;17.70;50.81;101618.72;5053454;28;20167;-65
2024/01/29 00:08:50;;;;;;;18.23;10.23;;;;;;;17.69;50.72;101628.47;5055099;28;20197;-66
2024/01/29 00:11:16;;;;;;;19.43;11.93;;;;;;;17.69;50.90;101631.31;5053501;28;20186;-65
2024/01/29 00:13:41;;;;;;;19.20;9.83;;;;;;;17.69;50.76;101630.47;5071024;28;20444;-66
2024/01/29 00:16:07;;;;;;;19.63;10.30;;;;;;;17.72;50.48;101632.66;5070462;28;20198;-66
2024/01/29 00:18:32;;;;;;;16.03;9.70;;;;;;;17.72;50.87;101633.50;5054204;28;20183;-65
2024/01/29 00:20:57;;;;;;;14.30;9.40;;;;;;;17.71;50.46;101637.50;5071245;28;20178;-66
2024/01/29 00:23:23;;;;;;;18.07;9.70;;;;;;;17.69;51.31;101634.19;5068579;28;20178;-66
2024/01/29 00:25:49;;;;;;;14.93;9.50;;;;;;;17.68;51.13;101625.94;5073176;28;20754;-65
2024/01/29 00:28:14;;;;;;;14.23;9.40;;;;;;;17.69;50.85;101628.47;5052137;28;20302;-66
2024/01/29 00:30:39;;;;;;;15.40;9.60;;;;;;;17.70;50.85;101629.31;5055223;28;20598;-66
2024/01/29 00:33:05;;;;;;;14.80;9.87;;;;;;;17.67;51.37;101633.69;5070411;28;20651;-65
2024/01/29 00:35:30;;;;;;;16.13;9.23;;;;;;;17.70;50.81;101630.13;5051484;28;20814;-65
2024/01/29 00:37:56;;;;;;;15.87;9.40;;;;;;;17.68;50.94;101626.78;5038906;28;20693;-65
2024/01/29 00:40:21;;;;;;;14.07;9.00;;;;;;;17.65;50.97;101627.47;5089655;28;20721;-66
2024/01/29 00:42:47;;;;;;;13.53;8.63;;;;;;;17.64;51.04;101625.81;5052995;28;20661;-65
2024/01/29 00:45:12;;;;;;;14.30;9.03;;;;;;;17.64;51.28;101625.81;5035901;28;20874;-66
2024/01/29 00:47:38;;;;;;;15.47;9.30;;;;;;;17.68;50.99;101625.94;5048768;28;20182;-66
2024/01/29 00:50:04;;;;;;;13.07;8.90;;;;;;;17.65;50.92;101620.94;5048542;28;20194;-65
2024/01/29 00:52:30;;;;;;;16.50;8.97;;;;;;;17.67;51.23;101627.97;5056337;28;20194;-66
2024/01/29 00:54:56;;;;;;;13.83;8.80;;;;;;;17.60;51.45;101627.66;5055289;28;20468;-65
2024/01/29 00:57:21;;;;;;;18.10;7.33;;;;;;;17.63;51.34;101635.56;5088898;28;21020;-66
2024/01/29 00:59:47;;;;;;;14.17;9.43;;;;;;;17.63;51.33;101637.56;5053824;28;20675;-66
2024/01/29 01:02:12;;;;;;;13.47;8.83;;;;;;;17.63;51.31;101632.69;5055143;28;20582;-65
2024/01/29 01:04:38;;;;;;;14.80;8.60;;;;;;;17.59;51.72;101633.72;5056457;28;20193;-65
2024/01/29 01:07:03;;;;;;;12.80;8.20;;;;;;;17.63;51.01;101637.56;5054392;28;20240;-66
2024/01/29 01:09:29;;;;;;;19.33;9.83;;;;;;;17.59;51.64;101636.56;5055142;28;20193;-65
2024/01/29 01:11:54;;;;;;;16.00;9.30;;;;;;;17.61;51.08;101637.06;5070488;28;20182;-66
2024/01/29 01:14:20;;;;;;;14.27;8.47;;;;;;;17.62;51.24;101638.75;5037777;28;20232;-65
2024/01/29 01:16:45;;;;;;;12.57;8.70;;;;;;;17.60;51.20;101635.41;5069957;28;20350;-66
2024/01/29 01:19:10;;;;;;;13.50;8.07;;;;;;;17.57;51.49;101636.09;5071099;28;20174;-66
2024/01/29 01:21:36;;;;;;;12.90;9.07;;;;;;;17.57;50.88;101633.22;5050842;28;20905;-65
2024/01/29 01:24:01;;;;;;;13.17;9.27;;;;;;;17.57;51.57;101636.94;5069836;28;20664;-65
2024/01/29 01:26:27;;;;;;;11.10;8.23;;;;;;;17.58;51.21;101637.75;5053378;28;21027;-66
2024/01/29 01:28:52;;;;;;;13.37;9.20;;;;;;;17.57;51.20;101636.09;5053333;28;20190;-66
2024/01/29 01:31:18;;;;;;;14.57;8.10;;;;;;;17.58;51.03;101634.88;5053464;28;20178;-66
2024/01/29 01:33:43;;;;;;;11.93;8.10;;;;;;;17.55;51.22;101639.28;5070551;28;20196;-67
2024/01/29 01:36:09;;;;;;;14.37;8.67;;;;;;;17.53;51.68;101641.66;5055577;28;20256;-65
2024/01/29 01:38:34;;;;;;;15.83;7.97;;;;;;;17.58;51.21;101637.75;5050553;28;20586;-66
2024/01/29 01:41:00;;;;;;;15.10;8.83;;;;;;;17.58;51.14;101635.75;5042159;28;20432;-65
2024/01/29 01:43:25;;;;;;;14.60;7.93;;;;;;;17.57;51.14;101641.78;5071903;28;20194;-65
2024/01/29 01:46:03;;;;;;;11.27;7.97;;;;;;;17.55;50.87;101629.88;5055313;28;20186;-65
2024/01/29 01:48:29;;;;;;;13.47;8.00;;;;;;;17.58;51.43;101629.19;5080953;28;20174;-65
2024/01/29 01:50:54;;;;;;;12.50;8.40;;;;;;;17.56;51.95;101640.94;5047387;28;20811;-66
2024/01/29 01:53:19;;;;;;;13.07;8.67;;;;;;;17.60;50.98;101636.22;5054417;28;20648;-65
2024/01/29 01:55:45;;;;;;;10.67;7.53;;;;;;;17.57;51.24;101628.38;5068495;28;20178;-67
2024/01/29 01:58:10;;;;;;;11.87;7.40;;;;;;;17.54;51.47;101637.59;5053523;28;20182;-66
2024/01/29 02:00:39;;;;;;;12.60;7.77;;;;;;;17.54;51.21;101643.31;5049839;28;20183;-65
2024/01/29 02:03:04;;;;;;;11.83;8.00;;;;;;;17.55;51.60;101636.41;5063267;28;20186;-66
2024/01/29 02:05:30;;;;;;;13.63;8.30;;;;;;;17.55;51.42;101638.44;5055073;28;20773;-66
2024/01/29 02:07:55;;;;;;;14.40;7.90;;;;;;;17.53;51.13;101638.78;5061736;28;20193;-65
2024/01/29 02:10:20;;;;;;;11.37;8.60;;;;;;;17.53;51.23;101638.78;5075837;28;20185;-66
2024/01/29 02:12:46;;;;;;;11.50;7.90;;;;;;;17.54;51.57;101631.91;5058305;28;20208;-65
2024/01/29 02:15:11;;;;;;;15.53;8.13;;;;;;;17.51;51.62;101638.28;5056943;28;20198;-67
2024/01/29 02:17:37;;;;;;;15.07;8.40;;;;;;;17.54;50.96;101634.75;5058835;28;20279;-66
2024/01/29 02:20:02;;;;;;;15.20;7.77;;;;;;;17.52;51.29;101639.97;5054547;28;20171;-66
2024/01/29 02:22:28;;;;;;;10.37;6.97;;;;;;;17.51;51.86;101635.41;5037682;28;20179;-66
2024/01/29 02:24:53;;;;;;;12.27;8.03;;;;;;;17.52;51.26;101633.41;5064366;28;20186;-66
2024/01/29 02:27:19;;;;;;;11.57;8.07;;;;;;;17.51;51.44;101637.44;5073643;28;20222;-65
2024/01/29 02:29:44;;;;;;;11.40;7.67;;;;;;;17.52;51.34;101639.13;5058696;28;20178;-66
2024/01/29 02:32:10;;;;;;;12.70;7.37;;;;;;;17.51;51.38;101638.28;5075083;28;20178;-66
2024/01/29 02:34:35;;;;;;;12.30;8.03;;;;;;;17.52;51.11;101644.84;5054876;28;20182;-66
2024/01/29 02:37:01;;;;;;;14.17;8.07;;;;;;;17.53;50.94;101646.50;5058640;28;20632;-65
2024/01/29 02:39:26;;;;;;;12.20;8.00;;;;;;;17.50;52.04;101642.31;5057157;28;20183;-65
2024/01/29 02:41:52;;;;;;;11.77;7.20;;;;;;;17.54;51.06;101642.47;5057287;28;20255;-66
2024/01/29 02:44:17;;;;;;;11.17;7.27;;;;;;;17.53;51.07;101641.66;5073627;28;20232;-66
2024/01/29 02:46:43;;;;;;;9.80;6.97;;;;;;;17.52;51.08;101634.25;5074490;28;20178;-66
2024/01/29 02:49:08;;;;;;;13.17;7.57;;;;;;;17.50;51.00;101632.94;5074271;28;20174;-66
2024/01/29 02:51:34;;;;;;;12.23;8.37;;;;;;;17.49;51.77;101634.94;5073994;28;20240;-66
2024/01/29 02:53:59;;;;;;;10.87;7.47;;;;;;;17.50;51.32;101636.59;5063550;28;20904;-66
2024/01/29 02:56:24;;;;;;;11.00;7.70;;;;;;;17.51;51.09;101632.56;5073566;28;20937;-66
2024/01/29 02:58:50;;;;;;;12.30;8.00;;;;;;;17.48;51.33;101638.97;5039946;28;20863;-66
2024/01/29 03:01:18;;;;;;;9.43;6.87;;;;;;;17.49;51.68;101637.78;5063245;28;20685;-66
2024/01/29 03:03:44;;;;;;;10.43;7.17;;;;;;;17.49;51.28;101645.50;5071465;28;20810;-66
2024/01/29 03:06:09;;;;;;;10.20;7.17;;;;;;;17.47;51.32;101643.00;5037007;28;20421;-66
2024/01/29 03:08:35;;;;;;;11.40;7.73;;;;;;;17.49;51.74;101649.22;5054784;28;20163;-67
2024/01/29 03:11:00;;;;;;;11.20;7.17;;;;;;;17.48;51.43;101643.84;5057925;28;20239;-66
2024/01/29 03:13:25;;;;;;;9.37;7.00;;;;;;;17.45;51.74;101638.81;5074091;28;20240;-65
2024/01/29 03:15:51;;;;;;;12.67;7.50;;;;;;;17.45;51.56;101639.66;5038947;28;20186;-66
2024/01/29 03:18:16;;;;;;;12.07;7.80;;;;;;;17.47;51.03;101636.47;5073613;28;20197;-65
2024/01/29 03:20:42;;;;;;;11.83;7.47;;;;;;;17.46;51.70;101632.75;5057526;28;20287;-66
2024/01/29 03:23:09;;;;;;;11.50;7.07;;;;;;;17.45;51.33;101628.22;5074172;28;20212;-67
2024/01/29 03:25:35;;;;;;;9.90;6.63;;;;;;;17.45;51.93;101631.06;5072853;28;20231;-65
2024/01/29 03:28:00;;;;;;;10.07;7.07;;;;;;;17.45;51.62;101633.94;5057239;28;21206;-66
2024/01/29 03:30:26;;;;;;;10.37;7.67;;;;;;;17.45;51.86;101625.38;5092114;28;20937;-66
2024/01/29 03:32:55;;;;;;;10.53;6.80;;;;;;;17.47;51.49;101628.75;5039734;28;20609;-66
2024/01/29 03:35:20;;;;;;;9.30;6.70;;;;;;;17.45;51.18;101633.13;5055826;28;20193;-66
2024/01/29 03:37:46;;;;;;;8.97;6.50;;;;;;;17.45;51.59;101624.56;5073124;28;20460;-66
2024/01/29 03:40:12;;;;;;;8.70;6.50;;;;;;;17.43;51.94;101622.03;5056068;28;20174;-66
2024/01/29 03:42:37;;;;;;;9.43;6.40;;;;;;;17.46;51.69;101626.22;5072705;28;20206;-66
2024/01/29 03:45:03;;;;;;;7.93;6.20;;;;;;;17.47;51.42;101625.88;5055113;28;20988;-67
2024/01/29 03:47:29;;;;;;;11.27;6.73;;;;;;;17.45;51.26;101621.69;5072217;28;20744;-66
2024/01/29 03:49:54;;;;;;;10.67;6.80;;;;;;;17.45;51.32;101635.97;5073510;28;20174;-66
2024/01/29 03:52:19;;;;;;;11.70;7.03;;;;;;;17.44;51.25;101628.56;5057863;28;20191;-66
2024/01/29 03:54:45;;;;;;;11.30;7.90;;;;;;;17.46;51.57;101635.59;5052010;28;20171;-66
2024/01/29 03:57:10;;;;;;;15.13;7.00;;;;;;;17.45;51.21;101633.13;5036116;28;20213;-66
2024/01/29 03:59:36;;;;;;;10.30;7.10;;;;;;;17.43;51.25;101632.59;5055411;28;20174;-66
2024/01/29 04:02:01;;;;;;;9.07;6.87;;;;;;;17.46;51.71;101629.91;5055066;28;20576;-66
2024/01/29 04:04:27;;;;;;;12.10;7.70;;;;;;;17.45;51.87;101631.06;5090459;28;20170;-66
2024/01/29 04:06:52;;;;;;;12.37;7.17;;;;;;;17.49;51.02;101626.38;5056503;28;20174;-65
2024/01/29 04:09:21;;;;;;;10.30;6.97;;;;;;;17.46;51.18;101627.03;5072300;28;20179;-66
2024/01/29 04:11:47;;;;;;;7.70;6.03;;;;;;;17.46;51.57;101627.03;5057802;28;20602;-66
2024/01/29 04:14:13;;;;;;;8.80;6.60;;;;;;;17.47;51.53;101625.88;5072265;28;20528;-66
2024/01/29 04:16:39;;;;;;;9.93;6.90;;;;;;;17.43;51.68;101633.44;5072163;28;20487;-66
2024/01/29 04:19:04;;;;;;;9.80;6.50;;;;;;;17.47;51.15;101625.88;5056468;28;20175;-66
2024/01/29 04:21:29;;;;;;;9.10;6.77;;;;;;;17.45;51.80;101633.94;5041758;28;20251;-65
2024/01/29 04:23:55;;;;;;;9.50;6.27;;;;;;;17.46;51.36;101629.91;5055907;28;20196;-66
2024/01/29 04:26:20;;;;;;;9.37;6.43;;;;;;;17.44;51.49;101632.25;5072171;28;20182;-66
2024/01/29 04:28:46;;;;;;;9.67;6.67;;;;;;;17.47;51.44;101634.44;5040175;28;20634;-67
2024/01/29 04:31:12;;;;;;;10.83;6.87;;;;;;;17.47;51.12;101637.31;5056601;28;20190;-66
2024/01/29 04:33:39;;;;;;;9.57;6.80;;;;;;;17.47;52.09;101625.03;5072907;28;20182;-67
2024/01/29 04:36:05;;;;;;;11.87;6.90;;;;;;;17.44;51.38;101629.41;5073430;28;20253;-66
2024/01/29 04:38:30;;;;;;;10.80;6.60;;;;;;;17.45;50.92;101631.06;5071124;28;20535;-66
2024/01/29 04:40:56;;;;;;;11.00;7.30;;;;;;;17.46;51.17;101632.75;5053776;28;20179;-66
2024/01/29 04:43:21;;;;;;;9.80;6.97;;;;;;;17.45;51.88;101627.41;5028451;28;20187;-66
2024/01/29 04:45:46;;;;;;;8.97;6.50;;;;;;;17.45;51.45;101630.25;5053291;28;20186;-67
2024/01/29 04:48:12;;;;;;;8.43;6.70;;;;;;;17.48;51.47;101638.13;5070864;28;20186;-66
2024/01/29 04:50:37;;;;;;;9.40;6.13;;;;;;;17.47;51.13;101631.59;5071424;28;20253;-66
2024/01/29 04:53:03;;;;;;;9.00;6.33;;;;;;;17.50;50.96;101632.94;5053276;28;20182;-66
2024/01/29 04:55:29;;;;;;;8.30;6.30;;;;;;;17.50;50.91;101628.03;5050414;28;20186;-65
2024/01/29 04:57:54;;;;;;;9.60;6.47;;;;;;;17.46;51.34;101635.59;5068545;28;20257;-66
2024/01/29 05:00:20;;;;;;;10.03;5.90;;;;;;;17.47;51.40;101631.59;5060152;28;20630;-66
2024/01/29 05:02:47;;;;;;;8.23;5.77;;;;;;;17.45;51.39;101624.56;5018668;28;20179;-66
2024/01/29 05:05:14;;;;;;;8.70;6.60;;;;;;;17.49;51.42;101640.66;5027895;28;20362;-65
2024/01/29 05:07:40;;;;;;;9.17;6.83;;;;;;;17.52;51.03;101630.56;5055560;28;21135;-66
2024/01/29 05:10:06;;;;;;;12.00;6.80;;;;;;;17.46;51.09;101635.59;5038657;28;20413;-67
2024/01/29 05:12:31;;;;;;;8.77;6.33;;;;;;;17.51;50.83;101643.97;5071781;28;20264;-65
2024/01/29 05:14:57;;;;;;;11.00;6.37;;;;;;;17.49;51.46;101645.50;5055188;28;20452;-66
2024/01/29 05:17:22;;;;;;;8.00;6.07;;;;;;;17.50;51.25;101638.63;5051066;28;20210;-66
2024/01/29 05:19:48;;;;;;;10.80;6.80;;;;;;;17.48;51.05;101644.69;5034873;28;20202;-66
2024/01/29 05:22:13;;;;;;;7.83;6.10;;;;;;;17.47;51.85;101643.00;5051505;28;20182;-66
2024/01/29 05:24:39;;;;;;;7.63;5.80;;;;;;;17.47;51.56;101648.72;5089122;28;20589;-66
2024/01/29 05:27:04;;;;;;;8.67;6.47;;;;;;;17.50;50.88;101642.31;5053955;28;20234;-66
2024/01/29 05:29:30;;;;;;;8.37;6.13;;;;;;;17.46;51.37;101637.63;5054398;28;20166;-67
2024/01/29 05:31:55;;;;;;;9.03;6.07;;;;;;;17.48;51.23;101644.69;5054301;28;20190;-66
2024/01/29 05:34:21;;;;;;;8.60;5.50;;;;;;;17.46;51.41;101647.03;5070807;28;20182;-66
2024/01/29 05:36:46;;;;;;;10.40;7.00;;;;;;;17.49;51.58;101640.66;5054840;28;20222;-66
2024/01/29 05:39:11;;;;;;;6.73;5.63;;;;;;;17.52;51.38;101642.84;5056350;28;20186;-66
2024/01/29 05:41:37;;;;;;;8.83;6.60;;;;;;;17.52;50.98;101645.69;5071000;28;20310;-66
2024/01/29 05:44:02;;;;;;;10.10;6.83;;;;;;;17.50;50.69;101636.59;5053904;28;20197;-66
2024/01/29 05:46:28;;;;;;;10.43;6.60;;;;;;;17.51;51.54;101646.03;5066795;28;20174;-66
2024/01/29 05:48:53;;;;;;;8.63;5.50;;;;;;;17.54;50.95;101642.47;5069535;28;20198;-66
2024/01/29 05:51:20;;;;;;;8.27;6.20;;;;;;;17.49;51.94;101649.22;5070789;28;20163;-66
2024/01/29 05:53:45;;;;;;;9.20;5.87;;;;;;;17.50;51.47;101650.88;5054043;28;20174;-66
2024/01/29 05:56:11;;;;;;;9.77;6.13;;;;;;;17.50;51.25;101659.44;5053795;28;20479;-66
2024/01/29 05:58:36;;;;;;;8.17;5.90;;;;;;;17.54;50.92;101651.03;5038197;28;20166;-66
2024/01/29 06:01:02;;;;;;;8.40;6.20;;;;;;;17.50;51.33;101650.88;5070549;28;20182;-66
2024/01/29 06:03:28;;;;;;;7.00;5.50;;;;;;;17.58;50.53;101650.03;5071400;28;20527;-66
2024/01/29 06:05:53;;;;;;;8.90;7.23;;;;;;;17.51;50.73;101661.13;5054378;28;20543;-66
2024/01/29 06:08:19;;;;;;;7.50;5.97;;;;;;;17.52;51.14;101656.25;5056547;28;20186;-66
2024/01/29 06:10:44;;;;;;;9.07;6.50;;;;;;;17.54;50.67;101660.44;5070876;28;20183;-65
2024/01/29 06:13:10;;;;;;;7.93;5.60;;;;;;;17.54;50.99;101656.75;5055996;28;20194;-66
2024/01/29 06:15:35;;;;;;;6.73;5.27;;;;;;;17.55;51.08;101650.69;5050296;28;20953;-66
2024/01/29 06:18:00;;;;;;;8.53;5.90;;;;;;;17.51;50.93;101648.88;5068979;28;20268;-66
2024/01/29 06:20:26;;;;;;;8.33;5.63;;;;;;;17.56;50.59;101646.66;5050600;28;20163;-66
2024/01/29 06:22:52;;;;;;;8.50;5.87;;;;;;;17.56;50.83;101654.41;5061912;28;20190;-65
2024/01/29 06:25:19;;;;;;;7.20;4.90;;;;;;;17.57;50.62;101654.06;5089331;28;20189;-65
2024/01/29 06:27:45;;;;;;;8.37;5.60;;;;;;;17.56;51.20;101651.53;5053885;28;20820;-66
2024/01/29 06:30:11;;;;;;;8.17;6.00;;;;;;;17.58;50.76;101643.47;5053443;28;20413;-66
2024/01/29 06:32:37;;;;;;;8.40;6.03;;;;;;;17.51;51.22;101655.41;5048131;28;20202;-66
2024/01/29 06:35:03;;;;;;;8.50;5.60;;;;;;;17.53;51.02;101650.22;5039080;28;20444;-66
2024/01/29 06:37:28;;;;;;;8.23;5.70;;;;;;;17.59;50.87;101650.84;5067972;28;20290;-65
2024/01/29 06:39:53;;;;;;;7.37;5.67;;;;;;;17.53;51.08;101647.34;5033618;28;20623;-66
2024/01/29 06:42:19;;;;;;;8.80;5.20;;;;;;;17.52;51.23;101653.41;5029910;28;20194;-66
2024/01/29 06:44:44;;;;;;;7.57;5.80;;;;;;;17.55;51.41;101656.41;5033381;28;20171;-65
2024/01/29 06:47:10;;;;;;;8.10;5.50;;;;;;;17.58;51.08;101669.16;5050197;28;20182;-65
2024/01/29 06:49:35;;;;;;;6.93;5.40;;;;;;;17.60;50.83;101666.81;5088084;28;20179;-65
2024/01/29 06:52:01;;;;;;;7.70;5.57;;;;;;;17.60;50.92;101669.69;5073967;28;20178;-65
2024/01/29 06:54:26;;;;;;;7.40;5.30;;;;;;;17.55;51.55;101673.53;5057252;28;20543;-66
2024/01/29 06:56:55;;;;;;;8.40;6.40;;;;;;;17.52;51.29;101674.22;5072367;28;20210;-65
2024/01/29 06:59:23;;;;;;;7.53;5.80;;;;;;;17.55;51.38;101675.56;5057391;28;20198;-66
2024/01/29 07:01:49;;;;;;;7.63;5.10;;;;;;;17.59;51.18;101679.41;5041723;28;20504;-66
2024/01/29 07:04:14;;;;;;;7.97;5.30;;;;;;;17.56;51.28;101671.53;5074895;28;20470;-65
2024/01/29 07:06:40;;;;;;;9.20;5.63;;;;;;;17.57;51.36;101671.19;5072847;28;20202;-65
2024/01/29 07:09:05;;;;;;;8.03;5.93;;;;;;;17.56;51.35;101682.94;5074563;28;20185;-66
2024/01/29 07:11:30;;;;;;;10.40;5.30;;;;;;;17.56;50.74;101683.78;5074595;28;20809;-66
2024/01/29 07:13:56;;;;;;;6.50;5.07;;;;;;;17.58;51.07;101690.00;5073847;28;20218;-66
2024/01/29 07:16:21;;;;;;;7.43;5.27;;;;;;;17.63;51.00;101691.81;5057574;28;20579;-65
2024/01/29 07:18:48;;;;;;;7.87;5.20;;;;;;;17.56;51.14;101697.22;5073606;28;20190;-65
2024/01/29 07:21:13;;;;;;;6.13;4.40;;;;;;;17.58;51.17;101706.28;5057530;28;20195;-65
2024/01/29 07:23:39;;;;;;;7.90;5.60;;;;;;;17.60;50.84;101701.91;5057469;28;20829;-66
2024/01/29 07:26:04;;;;;;;6.93;5.03;;;;;;;17.60;50.78;101706.78;5059705;28;20226;-66
2024/01/29 07:28:31;;;;;;;7.10;5.20;;;;;;;17.63;50.80;101711.81;5057182;28;20178;-66
2024/01/29 07:30:56;;;;;;;8.23;5.83;;;;;;;17.64;50.70;101717.19;5057302;28;20182;-66
2024/01/29 07:33:22;;;;;;;7.60;5.30;;;;;;;17.62;51.37;101722.41;5056097;28;20424;-65
2024/01/29 07:35:48;;;;;;;6.20;4.97;;;;;;;17.61;51.04;101719.91;5072192;28;20187;-66
2024/01/29 07:38:13;;;;;;;7.23;5.40;;;;;;;17.68;50.76;101725.91;5072846;28;20267;-66
2024/01/29 07:40:39;;;;;;;7.27;4.97;;;;;;;17.65;50.85;101720.91;5089253;28;20448;-66
2024/01/29 07:43:04;;;;;;;7.57;5.50;;;;;;;17.61;51.03;101722.75;5066804;28;20198;-66
2024/01/29 07:45:30;;;;;;;9.07;5.30;;;;;;;17.65;51.00;101721.72;5069452;28;20179;-66
2024/01/29 07:47:55;;;;;;;6.17;4.57;;;;;;;17.62;51.06;101730.97;5051958;28;20696;-66
2024/01/29 07:50:21;;;;;;;7.47;5.40;;;;;;;17.62;51.28;101730.13;5071711;28;20186;-65
2024/01/29 07:52:46;;;;;;;6.33;4.80;;;;;;;17.65;50.96;101724.56;5055877;28;20209;-66
2024/01/29 07:55:12;;;;;;;7.77;5.73;;;;;;;17.66;50.87;101725.41;5072914;28;20235;-66
2024/01/29 07:57:40;;;;;;;7.10;5.37;;;;;;;17.64;50.85;101728.59;5055013;28;20209;-66
2024/01/29 08:00:06;;;;;;;6.80;5.10;;;;;;;17.60;51.40;101727.59;5060502;28;20562;-67
2024/01/29 08:02:31;;;;;;;6.83;5.17;;;;;;;17.63;51.22;101735.50;5057094;28;20772;-66
2024/01/29 08:04:57;;;;;;;7.70;5.23;;;;;;;17.67;50.38;101725.09;5038644;28;20535;-65
2024/01/29 08:07:22;;;;;;;6.93;4.97;;;;;;;17.64;50.95;101734.31;5073224;28;20171;-65
2024/01/29 08:09:48;;;;;;;7.57;5.50;;;;;;;17.69;50.60;101734.13;5056381;28;20688;-65
2024/01/29 08:12:14;;;;;;;6.40;5.33;;;;;;;17.69;50.93;101741.84;5056809;28;20186;-65
2024/01/29 08:14:39;;;;;;;8.10;6.10;;;;;;;17.60;51.18;101736.19;5072313;28;20279;-66
2024/01/29 08:17:05;;;;;;;6.90;5.37;;;;;;;17.65;50.92;101740.88;5040262;28;20240;-65
2024/01/29 08:19:30;;;;;;;6.57;5.13;;;;;;;17.64;51.19;101745.75;5056415;28;20186;-65
2024/01/29 08:21:56;;;;;;;5.80;4.83;;;;;;;17.64;50.97;101739.19;5038966;28;20343;-65
2024/01/29 08:24:21;;;;;;;6.87;5.13;;;;;;;17.69;50.74;101739.84;5090765;28;20995;-65
2024/01/29 08:26:47;;;;;;;6.50;4.97;;;;;;;17.68;51.21;101737.31;5082726;28;20253;-65
2024/01/29 08:29:12;;;;;;;8.67;5.90;;;;;;;17.66;50.97;101749.09;5051067;28;20186;-65
2024/01/29 08:31:38;;;;;;;6.20;5.00;;;;;;;17.70;50.81;101743.56;5071324;28;20232;-65
2024/01/29 08:34:04;;;;;;;6.77;5.37;;;;;;;17.66;51.10;101742.56;5055168;28;20228;-65
2024/01/29 08:36:30;;;;;;;5.37;4.10;;;;;;;17.66;50.68;101749.09;5037734;28;20720;-65
2024/01/29 08:38:56;;;;;;;7.13;5.77;;;;;;;17.67;50.79;101747.94;5054064;28;20490;-65
2024/01/29 08:41:21;;;;;;;7.60;5.03;;;;;;;17.67;51.09;101745.06;5050275;28;20437;-65
2024/01/29 08:43:47;;;;;;;6.67;5.37;;;;;;;17.69;50.75;101742.72;5070192;28;20187;-65
2024/01/29 08:46:12;;;;;;;6.20;4.63;;;;;;;17.73;50.97;101743.72;5055233;28;20167;-65
2024/01/29 08:48:38;;;;;;;7.53;5.37;;;;;;;17.68;51.28;101752.47;5037100;28;20190;-65
2024/01/29 08:51:04;;;;;;;7.17;5.10;;;;;;;17.66;51.18;101740.53;5055133;28;20179;-65
2024/01/29 08:53:29;;;;;;;7.57;5.83;;;;;;;17.66;50.96;101748.28;5088391;28;20610;-65
2024/01/29 08:55:55;;;;;;;8.20;5.10;;;;;;;17.69;51.11;101745.56;5043375;28;20442;-65
2024/01/29 08:58:21;;;;;;;6.63;4.93;;;;;;;17.75;50.76;101741.34;5052061;28;20697;-65
2024/01/29 09:00:49;;;;;;;6.87;4.90;;;;;;;17.69;51.08;101744.72;5055155;28;20309;-66
2024/01/29 09:03:14;;;;;;;6.53;5.00;;;;;;;17.72;50.54;101753.47;5056112;28;20773;-65
2024/01/29 09:05:41;;;;;;;6.00;5.00;;;;;;;17.69;51.31;101748.41;5072228;28;20506;-65
2024/01/29 09:08:07;;;;;;;7.60;5.73;;;;;;;17.69;50.91;101753.28;5051723;28;20194;-65
2024/01/29 09:10:32;;;;;;;6.50;5.30;;;;;;;17.69;51.20;101751.28;5053774;28;20474;-65
2024/01/29 09:12:58;;;;;;;6.00;5.00;;;;;;;17.70;51.22;101755.81;5071582;28;20179;-65
2024/01/29 09:15:23;;;;;;;6.53;5.20;;;;;;;17.70;51.09;101749.28;5087709;28;20217;-65
2024/01/29 09:17:49;;;;;;;6.30;4.70;;;;;;;17.69;51.22;101751.28;5055827;28;20223;-65
2024/01/29 09:20:14;;;;;;;6.60;4.57;;;;;;;17.67;51.09;101750.78;5053261;28;20193;-65
2024/01/29 09:22:40;;;;;;;6.63;4.80;;;;;;;17.70;50.79;101755.81;5068956;28;20186;-65
2024/01/29 09:25:07;;;;;;;6.90;4.93;;;;;;;17.72;51.08;101769.75;5052794;28;20178;-65
2024/01/29 09:27:33;;;;;;;6.03;4.33;;;;;;;17.76;50.94;101759.31;5087968;28;21054;-65
2024/01/29 09:29:58;;;;;;;7.40;5.33;;;;;;;17.73;51.29;101760.84;5056588;28;20448;-66
2024/01/29 09:32:24;;;;;;;8.50;5.17;;;;;;;17.77;50.78;101769.56;5053735;28;20197;-65
2024/01/29 09:34:50;;;;;;;6.37;4.70;;;;;;;17.76;51.16;101765.03;5069951;28;20178;-65
2024/01/29 09:37:18;;;;;;;6.27;4.73;;;;;;;17.76;50.86;101760.16;5055831;28;20289;-65
2024/01/29 09:39:43;;;;;;;6.50;4.80;;;;;;;17.74;51.01;101762.53;5054825;28;20178;-64
2024/01/29 09:42:08;;;;;;;7.87;5.00;;;;;;;17.73;50.91;101757.13;5054690;28;20935;-65
2024/01/29 09:44:38;;;;;;;7.20;5.03;;;;;;;17.77;50.94;101758.16;5071611;28;20955;-65
2024/01/29 09:47:07;;;;;;;6.47;5.00;;;;;;;17.70;51.23;101755.81;5055012;28;20223;-65
2024/01/29 09:49:39;;;;;;;7.40;5.40;;;;;;;17.73;51.23;101760.84;5071030;28;20424;-65
2024/01/29 09:52:09;;;;;;;6.13;5.10;;;;;;;17.75;51.39;101761.34;5055527;28;20404;-65
2024/01/29 09:54:35;;;;;;;6.07;4.67;;;;;;;17.77;51.39;101756.13;5051383;28;20440;-65
2024/01/29 09:57:00;;;;;;;5.60;4.57;;;;;;;17.77;50.89;101756.13;5070426;28;20495;-65
2024/01/29 09:59:26;;;;;;;6.90;4.43;;;;;;;17.78;51.30;101760.66;5056546;28;20182;-64
2024/01/29 10:01:52;;;;;;;6.20;4.80;;;;;;;17.84;51.07;101761.31;5089830;28;20174;-65
2024/01/29 10:04:19;;;;;;;6.30;5.03;;;;;;;17.80;50.99;101760.34;5053200;28;20552;-65
2024/01/29 10:06:44;;;;;;;7.37;5.20;;;;;;;17.79;50.92;101765.19;5050787;28;20163;-65
2024/01/29 10:09:11;;;;;;;6.43;4.70;;;;;;;17.84;51.35;101762.16;5051127;28;20416;-65
2024/01/29 10:11:38;;;;;;;5.63;5.03;;;;;;;17.82;51.00;101763.69;5037404;28;20619;-65
2024/01/29 10:14:03;;;;;;;7.30;4.57;;;;;;;17.84;50.92;101764.16;5056070;28;20491;-64
2024/01/29 10:16:29;;;;;;;6.70;4.60;;;;;;;17.84;51.18;101759.28;5054045;28;20452;-65
2024/01/29 10:19:01;;;;;;;7.03;4.80;;;;;;;17.85;50.70;101751.56;5051515;28;20237;-64
2024/01/29 10:21:26;;;;;;;6.13;4.87;;;;;;;17.87;50.52;101752.91;5068797;28;20183;-64
2024/01/29 10:23:59;;;;;;;6.00;4.80;;;;;;;17.83;51.46;101762.50;5050837;28;20856;-64
2024/01/29 10:26:24;;;;;;;6.10;4.33;;;;;;;17.85;51.26;101754.44;5054206;28;20686;-65
2024/01/29 10:29:03;;;;;;;7.60;4.97;;;;;;;17.89;50.83;101770.53;5049807;28;20435;-65
2024/01/29 10:31:29;;;;;;;8.20;4.83;;;;;;;17.84;51.16;101755.59;5057833;28;20174;-65
2024/01/29 10:33:54;;;;;;;7.03;4.90;;;;;;;17.85;51.13;101745.88;5057109;28;20471;-65
2024/01/29 10:36:21;;;;;;;6.43;4.43;;;;;;;17.90;50.73;101746.50;5075685;28;20166;-65
2024/01/29 10:38:46;;;;;;;6.00;4.60;;;;;;;17.95;50.76;101740.59;5071927;28;21020;-65
2024/01/29 10:41:12;;;;;;;5.53;4.70;;;;;;;17.93;50.76;101742.97;5037484;28;20429;-65
2024/01/29 10:43:38;;;;;;;5.70;4.47;;;;;;;17.89;51.24;101736.25;5053065;28;20182;-65
2024/01/29 10:46:03;;;;;;;6.47;4.73;;;;;;;17.92;51.01;101741.31;5057909;28;20432;-65
2024/01/29 10:48:29;;;;;;;6.17;4.87;;;;;;;17.89;51.36;101736.25;5089058;28;20618;-64
2024/01/29 10:50:54;;;;;;;5.23;4.40;;;;;;;17.90;50.82;101742.81;5074814;28;20629;-65
2024/01/29 10:53:20;;;;;;;6.13;4.20;;;;;;;17.96;50.56;101735.72;5058399;28;21024;-65
2024/01/29 10:55:49;;;;;;;4.70;4.03;;;;;;;17.90;51.02;101735.06;5058118;28;20664;-64
2024/01/29 10:58:14;;;;;;;5.00;3.57;;;;;;;17.91;51.30;101735.91;5040918;28;20233;-66
2024/01/29 11:00:41;;;;;;;5.17;4.67;;;;;;;17.95;51.43;101731.16;5066722;28;20463;-66
2024/01/29 11:03:06;;;;;;;6.20;4.70;;;;;;;17.93;51.01;101731.53;5057574;28;20170;-66
2024/01/29 11:05:32;;;;;;;5.73;4.53;;;;;;;17.97;50.42;101732.50;5060148;28;20462;-65
2024/01/29 11:07:57;;;;;;;6.77;4.50;;;;;;;17.97;51.27;101723.94;5040910;28;20175;-66
2024/01/29 11:10:23;;;;;;;5.87;4.70;;;;;;;17.97;51.03;101720.25;5058202;28;20194;-65
2024/01/29 11:12:50;;;;;;;6.93;4.50;;;;;;;18.02;50.95;101723.75;5092222;28;20570;-65
2024/01/29 11:15:16;;;;;;;5.33;4.43;;;;;;;18.00;51.07;101720.41;5054514;28;20657;-65